createdAt,value
2023-03-05T00:00:15.011Z,0.00
2023-03-05T00:01:14.993Z,0.00
2023-03-05T00:02:15.091Z,0.00
2023-03-05T00:03:15.015Z,0.00
2023-03-05T00:04:14.983Z,0.00
2023-03-05T00:05:14.959Z,0.00
2023-03-05T00:06:14.929Z,0.00
2023-03-05T00:07:14.924Z,0.00
2023-03-05T00:08:14.906Z,0.00
2023-03-05T00:09:14.899Z,0.00
2023-03-05T00:10:14.903Z,0.00
2023-03-05T00:11:14.884Z,0.00
2023-03-05T00:12:14.861Z,0.00
2023-03-05T00:13:14.853Z,0.00
2023-03-05T00:14:14.851Z,0.00
2023-03-05T00:15:14.849Z,0.00
2023-03-05T00:16:14.908Z,0.00
2023-03-05T00:17:14.814Z,0.00
2023-03-05T00:18:14.793Z,0.00
2023-03-05T00:19:14.816Z,0.00
2023-03-05T00:20:14.805Z,0.00
2023-03-05T00:21:14.767Z,0.00
2023-03-05T00:22:14.776Z,0.00
2023-03-05T00:23:14.739Z,0.00
2023-03-05T00:24:14.748Z,0.00
2023-03-05T00:25:14.716Z,0.00
2023-03-05T00:26:14.701Z,0.00
2023-03-05T00:27:14.705Z,0.00
2023-03-05T00:28:14.697Z,0.00
2023-03-05T00:29:14.675Z,0.00
2023-03-05T00:30:14.667Z,0.00
2023-03-05T00:31:14.691Z,0.00
2023-03-05T00:32:14.654Z,0.00
2023-03-05T00:33:14.634Z,0.00
2023-03-05T00:34:14.629Z,0.00
2023-03-05T00:35:14.861Z,0.00
2023-03-05T00:36:14.616Z,0.00
2023-03-05T00:37:14.588Z,0.00
2023-03-05T00:38:14.568Z,0.00
2023-03-05T00:39:14.559Z,0.00
2023-03-05T00:40:14.613Z,0.00
2023-03-05T00:41:14.564Z,0.00
2023-03-05T00:42:14.522Z,0.00
2023-03-05T00:43:14.521Z,0.00
2023-03-05T00:44:14.512Z,0.00
2023-03-05T00:45:14.517Z,0.00
2023-03-05T00:46:14.639Z,0.00
2023-03-05T00:47:14.496Z,0.00
2023-03-05T00:48:14.460Z,0.00
2023-03-05T00:49:14.451Z,0.00
2023-03-05T00:50:14.440Z,0.00
2023-03-05T00:51:14.467Z,0.00
2023-03-05T00:52:14.437Z,0.00
2023-03-05T00:53:14.407Z,0.00
2023-03-05T00:54:14.409Z,0.00
2023-03-05T00:55:14.385Z,0.00
2023-03-05T00:56:14.378Z,0.00
2023-03-05T00:57:14.379Z,0.00
2023-03-05T00:58:14.349Z,0.00
2023-03-05T00:59:14.343Z,0.00
2023-03-05T01:00:14.347Z,0.00
2023-03-05T01:01:14.321Z,0.00
2023-03-05T01:02:14.303Z,0.00
2023-03-05T01:03:14.295Z,0.00
2023-03-05T01:04:14.278Z,0.00
2023-03-05T01:05:14.382Z,0.00
2023-03-05T01:06:14.255Z,0.00
2023-03-05T01:07:14.260Z,0.00
2023-03-05T01:08:14.248Z,0.00
2023-03-05T01:09:14.230Z,0.00
2023-03-05T01:10:14.210Z,0.00
2023-03-05T01:11:14.222Z,0.00
2023-03-05T01:12:14.194Z,0.00
2023-03-05T01:13:14.172Z,0.00
2023-03-05T01:14:14.165Z,0.00
2023-03-05T01:15:14.146Z,0.00
2023-03-05T01:16:14.158Z,0.00
2023-03-05T01:17:14.121Z,0.00
2023-03-05T01:18:14.133Z,0.00
2023-03-05T01:19:14.112Z,0.00
2023-03-05T01:20:14.088Z,0.00
2023-03-05T01:21:14.074Z,0.00
2023-03-05T01:22:14.057Z,0.00
2023-03-05T01:23:14.051Z,0.00
2023-03-05T01:24:14.067Z,0.00
2023-03-05T01:25:14.026Z,0.00
2023-03-05T01:26:14.037Z,0.00
2023-03-05T01:27:14.005Z,0.00
2023-03-05T01:28:13.994Z,0.00
2023-03-05T01:29:13.990Z,0.00
2023-03-05T01:30:13.979Z,0.00
2023-03-05T01:31:14.004Z,0.00
2023-03-05T01:32:13.972Z,0.00
2023-03-05T01:33:13.933Z,0.00
2023-03-05T01:34:13.939Z,0.00
2023-03-05T01:35:13.918Z,0.00
2023-03-05T01:36:13.936Z,0.00
2023-03-05T01:37:13.906Z,0.00
2023-03-05T01:38:13.877Z,0.00
2023-03-05T01:39:13.878Z,0.00
2023-03-05T01:40:13.881Z,0.00
2023-03-05T01:41:13.855Z,0.00
2023-03-05T01:42:13.832Z,0.00
2023-03-05T01:43:13.846Z,0.00
2023-03-05T01:44:13.830Z,0.00
2023-03-05T01:45:13.809Z,0.00
2023-03-05T01:46:13.792Z,0.00
2023-03-05T01:47:13.784Z,0.00
2023-03-05T01:48:13.777Z,0.00
2023-03-05T01:49:13.818Z,0.00
2023-03-05T01:50:13.747Z,0.00
2023-03-05T01:51:13.736Z,0.00
2023-03-05T01:52:13.720Z,0.00
2023-03-05T01:53:13.723Z,0.00
2023-03-05T01:54:13.721Z,0.00
2023-03-05T01:55:13.707Z,0.00
2023-03-05T01:56:13.713Z,0.00
2023-03-05T01:57:13.668Z,0.00
2023-03-05T01:58:13.662Z,0.00
2023-03-05T01:59:13.664Z,0.00
2023-03-05T02:00:13.667Z,0.00
2023-03-05T02:01:13.654Z,0.00
2023-03-05T02:02:13.632Z,0.00
2023-03-05T02:03:13.613Z,0.00
2023-03-05T02:04:13.605Z,0.00
2023-03-05T02:05:13.592Z,0.00
2023-03-05T02:06:13.587Z,0.00
2023-03-05T02:07:13.556Z,0.00
2023-03-05T02:08:13.556Z,0.00
2023-03-05T02:09:13.534Z,0.00
2023-03-05T02:10:13.520Z,0.00
2023-03-05T02:11:13.523Z,0.00
2023-03-05T02:12:13.528Z,0.00
2023-03-05T02:13:13.500Z,0.00
2023-03-05T02:14:13.500Z,0.00
2023-03-05T02:15:13.470Z,0.00
2023-03-05T02:16:13.491Z,0.00
2023-03-05T02:17:13.452Z,0.00
2023-03-05T02:18:13.437Z,0.00
2023-03-05T02:19:13.429Z,0.00
2023-03-05T02:20:13.424Z,0.00
2023-03-05T02:21:13.418Z,0.00
2023-03-05T02:22:13.408Z,0.00
2023-03-05T02:23:13.411Z,0.00
2023-03-05T02:24:13.374Z,0.00
2023-03-05T02:25:13.358Z,0.00
2023-03-05T02:26:13.373Z,0.00
2023-03-05T02:27:13.341Z,0.00
2023-03-05T02:28:13.346Z,0.00
2023-03-05T02:29:13.331Z,0.00
2023-03-05T02:30:13.312Z,0.00
2023-03-05T02:31:13.315Z,0.00
2023-03-05T02:32:13.417Z,0.00
2023-03-05T02:33:13.278Z,0.00
2023-03-05T02:34:13.277Z,0.00
2023-03-05T02:35:13.268Z,0.00
2023-03-05T02:36:13.242Z,0.00
2023-03-05T02:37:13.239Z,0.00
2023-03-05T02:38:13.229Z,0.00
2023-03-05T02:39:13.209Z,0.00
2023-03-05T02:40:13.235Z,0.00
2023-03-05T02:41:13.191Z,0.00
2023-03-05T02:42:13.181Z,0.00
2023-03-05T02:43:13.162Z,0.00
2023-03-05T02:44:13.188Z,0.00
2023-03-05T02:45:13.139Z,0.00
2023-03-05T02:46:13.199Z,0.00
2023-03-05T02:47:13.128Z,0.00
2023-03-05T02:48:13.110Z,0.00
2023-03-05T02:49:13.092Z,0.00
2023-03-05T02:50:13.085Z,0.00
2023-03-05T02:51:13.072Z,0.00
2023-03-05T02:52:13.081Z,0.00
2023-03-05T02:53:13.053Z,0.00
2023-03-05T02:54:13.044Z,0.00
2023-03-05T02:55:13.033Z,0.00
2023-03-05T02:56:13.024Z,0.00
2023-03-05T02:57:13.061Z,0.00
2023-03-05T02:58:13.008Z,0.00
2023-03-05T02:59:12.997Z,0.00
2023-03-05T03:00:13.107Z,0.00
2023-03-05T03:01:13.003Z,0.00
2023-03-05T03:02:12.962Z,0.00
2023-03-05T03:03:12.997Z,0.00
2023-03-05T03:04:12.932Z,0.00
2023-03-05T03:05:12.922Z,0.00
2023-03-05T03:06:12.910Z,0.00
2023-03-05T03:07:12.898Z,0.00
2023-03-05T03:08:12.920Z,0.00
2023-03-05T03:09:12.916Z,0.00
2023-03-05T03:10:12.865Z,0.00
2023-03-05T03:11:12.852Z,0.00
2023-03-05T03:12:12.846Z,0.00
2023-03-05T03:13:12.850Z,0.00
2023-03-05T03:14:19.948Z,0.00
2023-03-05T03:15:12.817Z,0.00
2023-03-05T03:16:12.837Z,0.00
2023-03-05T03:17:12.789Z,0.00
2023-03-05T03:18:12.811Z,0.00
2023-03-05T03:19:12.785Z,0.00
2023-03-05T03:20:12.786Z,0.00
2023-03-05T03:21:12.757Z,0.00
2023-03-05T03:22:12.739Z,0.00
2023-03-05T03:23:12.740Z,0.00
2023-03-05T03:24:12.765Z,0.00
2023-03-05T03:25:12.745Z,0.00
2023-03-05T03:26:12.716Z,0.00
2023-03-05T03:27:12.708Z,0.00
2023-03-05T03:28:12.713Z,0.00
2023-03-05T03:29:12.677Z,0.00
2023-03-05T03:30:12.749Z,0.00
2023-03-05T03:31:12.753Z,0.00
2023-03-05T03:32:12.731Z,0.00
2023-03-05T03:33:12.628Z,0.00
2023-03-05T03:34:12.607Z,0.00
2023-03-05T03:35:12.620Z,0.00
2023-03-05T03:36:12.601Z,0.00
2023-03-05T03:37:12.578Z,0.00
2023-03-05T03:38:12.574Z,0.00
2023-03-05T03:39:12.556Z,0.00
2023-03-05T03:40:12.555Z,0.00
2023-03-05T03:41:12.527Z,0.00
2023-03-05T03:42:12.531Z,0.00
2023-03-05T03:43:12.514Z,0.00
2023-03-05T03:44:12.511Z,0.00
2023-03-05T03:45:12.494Z,0.00
2023-03-05T03:46:12.574Z,0.00
2023-03-05T03:47:12.475Z,0.00
2023-03-05T03:48:12.474Z,0.00
2023-03-05T03:49:12.458Z,0.00
2023-03-05T03:50:12.448Z,0.00
2023-03-05T03:51:12.418Z,0.00
2023-03-05T03:52:12.411Z,0.00
2023-03-05T03:53:12.399Z,0.00
2023-03-05T03:54:12.424Z,0.00
2023-03-05T03:55:12.387Z,0.00
2023-03-05T03:56:12.367Z,0.00
2023-03-05T03:57:12.351Z,0.00
2023-03-05T03:58:12.361Z,0.00
2023-03-05T03:59:12.345Z,0.00
2023-03-05T04:00:12.341Z,0.00
2023-03-05T04:01:12.318Z,0.00
2023-03-05T04:02:12.385Z,0.00
2023-03-05T04:03:12.303Z,0.00
2023-03-05T04:04:12.354Z,0.00
2023-03-05T04:05:12.292Z,0.00
2023-03-05T04:06:12.282Z,0.00
2023-03-05T04:07:12.278Z,0.00
2023-03-05T04:08:12.250Z,0.00
2023-03-05T04:09:12.228Z,0.00
2023-03-05T04:10:12.229Z,0.00
2023-03-05T04:11:12.196Z,0.00
2023-03-05T04:12:12.196Z,0.00
2023-03-05T04:13:12.186Z,0.00
2023-03-05T04:14:12.181Z,0.00
2023-03-05T04:15:12.170Z,0.00
2023-03-05T04:16:12.197Z,0.00
2023-03-05T04:17:12.141Z,0.00
2023-03-05T04:18:12.134Z,0.00
2023-03-05T04:19:12.197Z,0.00
2023-03-05T04:20:12.128Z,0.00
2023-03-05T04:21:12.102Z,0.00
2023-03-05T04:22:12.120Z,0.00
2023-03-05T04:23:12.062Z,0.00
2023-03-05T04:24:12.058Z,0.00
2023-03-05T04:25:12.069Z,0.00
2023-03-05T04:26:12.045Z,0.00
2023-03-05T04:27:12.020Z,0.00
2023-03-05T04:28:12.019Z,0.00
2023-03-05T04:29:12.020Z,0.00
2023-03-05T04:30:11.991Z,0.00
2023-03-05T04:31:12.029Z,0.00
2023-03-05T04:32:11.990Z,0.00
2023-03-05T04:33:11.953Z,0.00
2023-03-05T04:34:11.946Z,0.00
2023-03-05T04:35:11.947Z,0.00
2023-03-05T04:36:11.954Z,0.00
2023-03-05T04:37:11.909Z,0.00
2023-03-05T04:38:11.902Z,0.00
2023-03-05T04:39:11.885Z,0.00
2023-03-05T04:40:11.890Z,0.00
2023-03-05T04:41:11.871Z,0.00
2023-03-05T04:42:11.862Z,0.00
2023-03-05T04:43:11.838Z,0.00
2023-03-05T04:44:11.833Z,0.00
2023-03-05T04:45:11.823Z,0.00
2023-03-05T04:46:11.851Z,0.00
2023-03-05T04:47:11.799Z,0.00
2023-03-05T04:48:11.828Z,0.00
2023-03-05T04:49:11.782Z,0.00
2023-03-05T04:50:11.763Z,0.00
2023-03-05T04:51:11.761Z,0.00
2023-03-05T04:52:11.764Z,0.00
2023-03-05T04:53:11.726Z,0.00
2023-03-05T04:54:11.718Z,0.00
2023-03-05T04:55:11.710Z,0.00
2023-03-05T04:56:11.707Z,0.00
2023-03-05T04:57:11.687Z,0.00
2023-03-05T04:58:11.688Z,0.00
2023-03-05T04:59:11.661Z,0.00
2023-03-05T05:00:11.656Z,0.00
2023-03-05T05:01:11.646Z,0.00
2023-03-05T05:02:11.641Z,0.00
2023-03-05T05:03:11.718Z,0.00
2023-03-05T05:04:11.630Z,0.00
2023-03-05T05:05:11.595Z,0.00
2023-03-05T05:06:11.613Z,0.00
2023-03-05T05:07:11.596Z,0.00
2023-03-05T05:08:11.593Z,0.00
2023-03-05T05:09:11.553Z,0.00
2023-03-05T05:10:11.541Z,0.00
2023-03-05T05:11:11.534Z,0.00
2023-03-05T05:12:11.524Z,0.00
2023-03-05T05:13:11.516Z,0.00
2023-03-05T05:14:11.509Z,0.00
2023-03-05T05:15:11.504Z,0.00
2023-03-05T05:16:11.542Z,0.00
2023-03-05T05:17:11.471Z,0.00
2023-03-05T05:18:11.477Z,0.00
2023-03-05T05:19:11.520Z,0.00
2023-03-05T05:20:11.452Z,0.00
2023-03-05T05:21:11.417Z,0.00
2023-03-05T05:22:11.412Z,0.00
2023-03-05T05:23:11.401Z,0.00
2023-03-05T05:24:11.414Z,0.00
2023-03-05T05:25:11.397Z,0.00
2023-03-05T05:26:11.373Z,0.00
2023-03-05T05:27:11.351Z,0.00
2023-03-05T05:28:11.350Z,0.00
2023-03-05T05:29:11.350Z,0.00
2023-03-05T05:30:11.329Z,0.00
2023-03-05T05:31:11.321Z,0.00
2023-03-05T05:32:11.329Z,0.00
2023-03-05T05:33:11.293Z,0.00
2023-03-05T05:34:11.291Z,0.00
2023-03-05T05:35:11.280Z,0.00
2023-03-05T05:36:11.262Z,0.00
2023-03-05T05:37:11.255Z,0.00
2023-03-05T05:38:11.234Z,0.00
2023-03-05T05:39:11.229Z,0.00
2023-03-05T05:40:11.261Z,0.00
2023-03-05T05:41:11.203Z,0.00
2023-03-05T05:42:11.201Z,0.00
2023-03-05T05:43:11.189Z,0.00
2023-03-05T05:44:11.171Z,0.00
2023-03-05T05:45:11.231Z,0.00
2023-03-05T05:46:11.362Z,0.00
2023-03-05T05:47:11.138Z,0.00
2023-03-05T05:48:11.137Z,0.00
2023-03-05T05:49:11.130Z,0.00
2023-03-05T05:50:11.168Z,0.00
2023-03-05T05:51:11.104Z,0.00
2023-03-05T05:52:11.115Z,0.00
2023-03-05T05:53:11.083Z,0.00
2023-03-05T05:54:11.069Z,4.00
2023-03-05T05:55:11.055Z,4.00
2023-03-05T05:56:11.081Z,4.00
2023-03-05T05:57:11.042Z,4.00
2023-03-05T05:58:11.020Z,4.00
2023-03-05T05:59:11.021Z,0.00
2023-03-05T06:00:11.004Z,0.00
2023-03-05T06:01:10.997Z,0.00
2023-03-05T06:02:11.040Z,4.00
2023-03-05T06:03:11.032Z,4.00
2023-03-05T06:04:10.954Z,4.00
2023-03-05T06:05:10.945Z,0.00
2023-03-05T06:06:10.932Z,4.00
2023-03-05T06:07:10.933Z,4.00
2023-03-05T06:08:10.911Z,4.00
2023-03-05T06:09:10.897Z,4.00
2023-03-05T06:10:10.898Z,4.00
2023-03-05T06:11:10.886Z,4.00
2023-03-05T06:12:10.900Z,4.00
2023-03-05T06:13:10.850Z,4.00
2023-03-05T06:14:10.844Z,8.00
2023-03-05T06:15:10.851Z,8.00
2023-03-05T06:16:10.840Z,12.00
2023-03-05T06:17:12.913Z,12.00
2023-03-05T06:18:10.803Z,16.00
2023-03-05T06:19:10.791Z,20.00
2023-03-05T06:20:10.791Z,20.00
2023-03-05T06:21:10.766Z,20.00
2023-03-05T06:22:10.767Z,24.00
2023-03-05T06:23:10.745Z,32.00
2023-03-05T06:24:10.742Z,28.00
2023-03-05T06:25:10.722Z,32.00
2023-03-05T06:26:10.710Z,28.00
2023-03-05T06:27:10.709Z,32.00
2023-03-05T06:28:10.727Z,32.00
2023-03-05T06:29:10.693Z,28.00
2023-03-05T06:30:10.692Z,28.00
2023-03-05T06:31:10.748Z,36.00
2023-03-05T06:32:10.710Z,44.00
2023-03-05T06:33:10.636Z,40.00
2023-03-05T06:34:10.640Z,40.00
2023-03-05T06:35:10.611Z,48.00
2023-03-05T06:36:10.602Z,64.00
2023-03-05T06:37:10.585Z,72.00
2023-03-05T06:38:10.587Z,76.00
2023-03-05T06:39:10.576Z,84.00
2023-03-05T06:40:10.559Z,116.00
2023-03-05T06:41:10.547Z,144.00
2023-03-05T06:42:10.570Z,144.00
2023-03-05T06:43:10.528Z,140.00
2023-03-05T06:44:10.556Z,144.00
2023-03-05T06:45:10.503Z,164.00
2023-03-05T06:46:10.562Z,176.00
2023-03-05T06:47:10.543Z,156.00
2023-03-05T06:48:10.478Z,144.00
2023-03-05T06:49:10.470Z,164.00
2023-03-05T06:50:10.448Z,184.00
2023-03-05T06:51:10.436Z,180.00
2023-03-05T06:52:10.421Z,172.00
2023-03-05T06:53:10.428Z,204.00
2023-03-05T06:54:10.422Z,236.00
2023-03-05T06:55:10.405Z,276.00
2023-03-05T06:56:10.378Z,248.00
2023-03-05T06:57:10.395Z,244.00
2023-03-05T06:58:10.369Z,272.00
2023-03-05T06:59:10.395Z,288.00
2023-03-05T07:00:10.364Z,332.00
2023-03-05T07:01:10.404Z,436.00
2023-03-05T07:02:10.436Z,484.00
2023-03-05T07:03:10.320Z,584.00
2023-03-05T07:04:10.296Z,624.00
2023-03-05T07:05:10.331Z,612.00
2023-03-05T07:06:10.266Z,612.00
2023-03-05T07:07:10.274Z,564.00
2023-03-05T07:08:10.249Z,512.00
2023-03-05T07:09:10.262Z,344.00
2023-03-05T07:10:10.246Z,256.00
2023-03-05T07:11:10.228Z,276.00
2023-03-05T07:12:10.202Z,332.00
2023-03-05T07:13:10.202Z,348.00
2023-03-05T07:14:10.261Z,328.00
2023-03-05T07:15:10.192Z,388.00
2023-03-05T07:16:10.319Z,416.00
2023-03-05T07:17:10.156Z,360.00
2023-03-05T07:18:10.133Z,380.00
2023-03-05T07:19:10.143Z,428.00
2023-03-05T07:20:10.123Z,492.00
2023-03-05T07:21:10.120Z,412.00
2023-03-05T07:22:10.098Z,408.00
2023-03-05T07:23:10.080Z,484.00
2023-03-05T07:24:10.088Z,532.00
2023-03-05T07:25:10.063Z,460.00
2023-03-05T07:26:10.046Z,472.00
2023-03-05T07:27:10.051Z,480.00
2023-03-05T07:28:10.038Z,472.00
2023-03-05T07:29:10.026Z,392.00
2023-03-05T07:30:10.003Z,388.00
2023-03-05T07:31:10.062Z,376.00
2023-03-05T07:32:10.034Z,388.00
2023-03-05T07:33:09.983Z,396.00
2023-03-05T07:34:09.970Z,328.00
2023-03-05T07:35:09.959Z,348.00
2023-03-05T07:36:09.949Z,412.00
2023-03-05T07:37:09.937Z,400.00
2023-03-05T07:38:09.927Z,336.00
2023-03-05T07:39:09.909Z,336.00
2023-03-05T07:40:09.896Z,328.00
2023-03-05T07:41:09.908Z,276.00
2023-03-05T07:42:09.903Z,240.00
2023-03-05T07:43:09.872Z,240.00
2023-03-05T07:44:09.862Z,216.00
2023-03-05T07:45:09.852Z,192.00
2023-03-05T07:46:09.937Z,212.00
2023-03-05T07:47:09.850Z,276.00
2023-03-05T07:48:09.824Z,332.00
2023-03-05T07:49:09.802Z,300.00
2023-03-05T07:50:09.790Z,312.00
2023-03-05T07:51:09.784Z,308.00
2023-03-05T07:52:09.761Z,268.00
2023-03-05T07:53:09.765Z,236.00
2023-03-05T07:54:09.736Z,252.00
2023-03-05T07:55:09.738Z,284.00
2023-03-05T07:56:09.727Z,256.00
2023-03-05T07:57:09.708Z,236.00
2023-03-05T07:58:09.707Z,232.00
2023-03-05T07:59:09.700Z,264.00
2023-03-05T08:00:09.687Z,248.00
2023-03-05T08:01:11.182Z,236.00
2023-03-05T08:02:09.673Z,236.00
2023-03-05T08:03:09.699Z,236.00
2023-03-05T08:04:09.720Z,192.00
2023-03-05T08:05:09.632Z,200.00
2023-03-05T08:06:09.616Z,248.00
2023-03-05T08:07:09.602Z,288.00
2023-03-05T08:08:09.588Z,248.00
2023-03-05T08:09:09.612Z,288.00
2023-03-05T08:10:09.573Z,340.00
2023-03-05T08:11:09.595Z,416.00
2023-03-05T08:12:09.540Z,364.00
2023-03-05T08:13:09.532Z,384.00
2023-03-05T08:14:09.530Z,420.00
2023-03-05T08:15:09.510Z,388.00
2023-03-05T08:16:09.578Z,376.00
2023-03-05T08:17:09.485Z,408.00
2023-03-05T08:18:09.474Z,452.00
2023-03-05T08:19:09.468Z,468.00
2023-03-05T08:20:09.490Z,424.00
2023-03-05T08:21:09.445Z,496.00
2023-03-05T08:22:09.453Z,440.00
2023-03-05T08:23:09.436Z,388.00
2023-03-05T08:24:09.422Z,456.00
2023-03-05T08:25:09.405Z,436.00
2023-03-05T08:26:09.387Z,468.00
2023-03-05T08:27:09.377Z,516.00
2023-03-05T08:28:09.370Z,568.00
2023-03-05T08:29:09.377Z,512.00
2023-03-05T08:30:09.355Z,488.00
2023-03-05T08:31:09.450Z,584.00
2023-03-05T08:32:09.348Z,588.00
2023-03-05T08:33:09.311Z,572.00
2023-03-05T08:34:09.307Z,652.00
2023-03-05T08:35:09.314Z,748.00
2023-03-05T08:36:09.304Z,684.00
2023-03-05T08:37:09.267Z,648.00
2023-03-05T08:38:09.254Z,716.00
2023-03-05T08:39:09.247Z,664.00
2023-03-05T08:40:09.277Z,704.00
2023-03-05T08:41:09.237Z,780.00
2023-03-05T08:42:09.217Z,756.00
2023-03-05T08:43:09.202Z,736.00
2023-03-05T08:44:09.204Z,820.00
2023-03-05T08:45:09.214Z,820.00
2023-03-05T08:46:09.263Z,744.00
2023-03-05T08:47:09.157Z,828.00
2023-03-05T08:48:09.141Z,800.00
2023-03-05T08:49:09.133Z,852.00
2023-03-05T08:50:09.131Z,992.00
2023-03-05T08:51:09.136Z,1024.00
2023-03-05T08:52:09.132Z,1012.00
2023-03-05T08:53:09.092Z,1096.00
2023-03-05T08:54:09.074Z,1040.00
2023-03-05T08:55:09.079Z,996.00
2023-03-05T08:56:09.055Z,1052.00
2023-03-05T08:57:09.064Z,1048.00
2023-03-05T08:58:09.065Z,1000.00
2023-03-05T08:59:09.086Z,1004.00
2023-03-05T09:00:09.008Z,952.00
2023-03-05T09:01:09.008Z,852.00
2023-03-05T09:02:09.022Z,872.00
2023-03-05T09:03:09.025Z,788.00
2023-03-05T09:04:08.971Z,732.00
2023-03-05T09:05:08.962Z,764.00
2023-03-05T09:06:08.941Z,616.00
2023-03-05T09:07:08.942Z,564.00
2023-03-05T09:08:08.957Z,536.00
2023-03-05T09:09:08.911Z,424.00
2023-03-05T09:10:08.898Z,336.00
2023-03-05T09:11:08.913Z,352.00
2023-03-05T09:12:11.150Z,304.00
2023-03-05T09:13:08.865Z,224.00
2023-03-05T09:14:08.887Z,236.00
2023-03-05T09:15:15.954Z,244.00
2023-03-05T09:16:08.913Z,208.00
2023-03-05T09:17:08.822Z,208.00
2023-03-05T09:18:08.810Z,212.00
2023-03-05T09:19:08.805Z,160.00
2023-03-05T09:20:08.795Z,188.00
2023-03-05T09:21:08.788Z,252.00
2023-03-05T09:22:08.772Z,272.00
2023-03-05T09:23:08.766Z,344.00
2023-03-05T09:24:08.767Z,516.00
2023-03-05T09:25:08.747Z,696.00
2023-03-05T09:26:08.720Z,784.00
2023-03-05T09:27:08.717Z,896.00
2023-03-05T09:28:08.702Z,900.00
2023-03-05T09:29:08.686Z,924.00
2023-03-05T09:30:08.672Z,952.00
2023-03-05T09:31:08.660Z,1056.00
2023-03-05T09:32:08.773Z,1076.00
2023-03-05T09:33:08.646Z,1100.00
2023-03-05T09:34:08.627Z,1308.00
2023-03-05T09:35:08.618Z,1340.00
2023-03-05T09:36:08.612Z,1228.00
2023-03-05T09:37:08.617Z,1324.00
2023-03-05T09:38:08.593Z,1256.00
2023-03-05T09:39:08.588Z,1316.00
2023-03-05T09:40:08.578Z,1356.00
2023-03-05T09:41:08.565Z,1380.00
2023-03-05T09:42:10.222Z,1340.00
2023-03-05T09:43:08.545Z,1400.00
2023-03-05T09:44:08.538Z,1568.00
2023-03-05T09:45:08.505Z,1620.00
2023-03-05T09:46:08.540Z,1852.00
2023-03-05T09:47:08.490Z,1904.00
2023-03-05T09:48:08.470Z,2056.00
2023-03-05T09:49:08.480Z,2272.00
2023-03-05T09:50:08.449Z,3456.00
2023-03-05T09:51:08.462Z,3596.00
2023-03-05T09:52:08.442Z,3316.00
2023-03-05T09:53:08.425Z,3616.00
2023-03-05T09:54:08.409Z,3228.00
2023-03-05T09:55:08.402Z,3632.00
2023-03-05T09:56:08.403Z,2912.00
2023-03-05T09:57:08.384Z,3300.00
2023-03-05T09:58:08.371Z,3044.00
2023-03-05T09:59:08.353Z,3520.00
2023-03-05T10:00:08.338Z,3308.00
2023-03-05T10:01:08.363Z,3188.00
2023-03-05T10:02:08.323Z,3720.00
2023-03-05T10:03:08.338Z,3856.00
2023-03-05T10:04:08.409Z,3764.00
2023-03-05T10:05:08.302Z,3980.00
2023-03-05T10:06:08.268Z,4024.00
2023-03-05T10:07:08.896Z,4224.00
2023-03-05T10:08:08.252Z,5132.00
2023-03-05T10:09:08.245Z,5088.00
2023-03-05T10:10:08.238Z,3332.00
2023-03-05T10:11:08.224Z,5600.00
2023-03-05T10:12:08.218Z,6224.00
2023-03-05T10:13:08.190Z,5128.00
2023-03-05T10:14:08.175Z,4688.00
2023-03-05T10:15:08.176Z,4116.00
2023-03-05T10:16:08.323Z,7528.00
2023-03-05T10:17:08.143Z,7400.00
2023-03-05T10:18:08.148Z,7524.00
2023-03-05T10:19:08.122Z,7456.00
2023-03-05T10:20:08.105Z,7432.00
2023-03-05T10:21:08.099Z,7088.00
2023-03-05T10:22:08.094Z,7136.00
2023-03-05T10:23:08.085Z,7288.00
2023-03-05T10:24:08.078Z,5672.00
2023-03-05T10:25:08.064Z,7584.00
2023-03-05T10:26:08.057Z,7576.00
2023-03-05T10:27:08.143Z,3084.00
2023-03-05T10:28:08.035Z,2612.00
2023-03-05T10:29:08.026Z,2224.00
2023-03-05T10:30:07.995Z,1916.00
2023-03-05T10:31:07.986Z,2032.00
2023-03-05T10:32:08.261Z,6536.00
2023-03-05T10:33:07.965Z,6128.00
2023-03-05T10:34:07.979Z,5728.00
2023-03-05T10:35:07.946Z,5628.00
2023-03-05T10:36:07.931Z,4808.00
2023-03-05T10:37:07.944Z,4668.00
2023-03-05T10:38:07.914Z,4168.00
2023-03-05T10:39:07.898Z,3772.00
2023-03-05T10:40:07.904Z,3704.00
2023-03-05T10:41:07.890Z,3076.00
2023-03-05T10:42:07.878Z,3224.00
2023-03-05T10:43:07.865Z,3540.00
2023-03-05T10:44:07.859Z,3544.00
2023-03-05T10:45:07.830Z,2000.00
2023-03-05T10:46:07.900Z,2104.00
2023-03-05T10:47:07.814Z,2308.00
2023-03-05T10:48:07.792Z,3584.00
2023-03-05T10:49:07.835Z,3488.00
2023-03-05T10:50:07.772Z,2836.00
2023-03-05T10:51:07.787Z,1944.00
2023-03-05T10:52:07.758Z,3528.00
2023-03-05T10:53:07.767Z,3664.00
2023-03-05T10:54:07.725Z,3600.00
2023-03-05T10:55:07.715Z,3632.00
2023-03-05T10:56:07.701Z,2316.00
2023-03-05T10:57:07.703Z,3464.00
2023-03-05T10:58:07.690Z,3228.00
2023-03-05T10:59:07.667Z,3232.00
2023-03-05T11:00:07.716Z,3088.00
2023-03-05T11:01:07.721Z,3280.00
2023-03-05T11:02:07.726Z,3220.00
2023-03-05T11:03:07.632Z,3444.00
2023-03-05T11:04:07.628Z,3728.00
2023-03-05T11:05:07.595Z,3696.00
2023-03-05T11:06:07.598Z,2512.00
2023-03-05T11:07:07.585Z,2744.00
2023-03-05T11:08:07.567Z,2552.00
2023-03-05T11:09:07.652Z,2324.00
2023-03-05T11:10:07.559Z,2312.00
2023-03-05T11:11:07.527Z,1920.00
2023-03-05T11:12:07.525Z,1872.00
2023-03-05T11:13:07.510Z,1824.00
2023-03-05T11:14:07.499Z,1732.00
2023-03-05T11:15:07.515Z,1736.00
2023-03-05T11:16:07.590Z,1600.00
2023-03-05T11:17:07.470Z,1492.00
2023-03-05T11:18:07.465Z,1524.00
2023-03-05T11:19:07.441Z,1428.00
2023-03-05T11:20:07.441Z,1428.00
2023-03-05T11:21:07.431Z,1348.00
2023-03-05T11:22:07.420Z,1364.00
2023-03-05T11:23:07.408Z,1228.00
2023-03-05T11:24:07.382Z,1312.00
2023-03-05T11:25:07.385Z,1332.00
2023-03-05T11:26:07.368Z,2488.00
2023-03-05T11:27:07.345Z,1672.00
2023-03-05T11:28:07.350Z,1636.00
2023-03-05T11:29:07.324Z,1916.00
2023-03-05T11:30:07.314Z,2644.00
2023-03-05T11:31:07.456Z,2376.00
2023-03-05T11:32:07.348Z,1792.00
2023-03-05T11:33:09.954Z,1576.00
2023-03-05T11:34:07.277Z,1328.00
2023-03-05T11:35:07.261Z,1212.00
2023-03-05T11:36:07.252Z,1204.00
2023-03-05T11:37:07.234Z,1316.00
2023-03-05T11:38:07.249Z,1184.00
2023-03-05T11:39:07.234Z,1256.00
2023-03-05T11:40:07.210Z,1124.00
2023-03-05T11:41:07.189Z,1256.00
2023-03-05T11:42:07.182Z,1172.00
2023-03-05T11:43:07.173Z,1308.00
2023-03-05T11:44:07.188Z,1308.00
2023-03-05T11:45:07.150Z,1408.00
2023-03-05T11:46:07.187Z,1496.00
2023-03-05T11:47:07.123Z,1436.00
2023-03-05T11:48:07.144Z,1416.00
2023-03-05T11:49:07.147Z,1444.00
2023-03-05T11:50:07.102Z,1556.00
2023-03-05T11:51:07.077Z,2008.00
2023-03-05T11:52:07.078Z,2052.00
2023-03-05T11:53:07.057Z,2024.00
2023-03-05T11:54:07.071Z,1948.00
2023-03-05T11:55:07.049Z,2012.00
2023-03-05T11:56:07.025Z,2352.00
2023-03-05T11:57:07.014Z,1984.00
2023-03-05T11:58:07.028Z,1868.00
2023-03-05T11:59:06.989Z,1636.00
2023-03-05T12:00:07.021Z,1716.00
2023-03-05T12:01:06.971Z,1580.00
2023-03-05T12:02:06.960Z,1712.00
2023-03-05T12:03:07.022Z,1756.00
2023-03-05T12:04:07.062Z,2420.00
2023-03-05T12:05:06.941Z,2396.00
2023-03-05T12:06:06.925Z,2008.00
2023-03-05T12:07:06.928Z,2032.00
2023-03-05T12:08:06.901Z,1720.00
2023-03-05T12:09:06.896Z,1680.00
2023-03-05T12:10:06.870Z,1784.00
2023-03-05T12:11:06.885Z,1940.00
2023-03-05T12:12:06.848Z,1940.00
2023-03-05T12:13:06.863Z,2796.00
2023-03-05T12:14:06.835Z,2356.00
2023-03-05T12:15:06.812Z,2920.00
2023-03-05T12:16:06.881Z,3040.00
2023-03-05T12:17:06.822Z,2036.00
2023-03-05T12:18:06.805Z,2080.00
2023-03-05T12:19:06.769Z,2780.00
2023-03-05T12:20:06.879Z,2740.00
2023-03-05T12:21:06.757Z,2372.00
2023-03-05T12:22:06.738Z,2292.00
2023-03-05T12:23:06.729Z,2140.00
2023-03-05T12:24:06.741Z,2116.00
2023-03-05T12:25:06.701Z,2064.00
2023-03-05T12:26:06.693Z,2064.00
2023-03-05T12:27:06.802Z,1968.00
2023-03-05T12:28:06.693Z,1780.00
2023-03-05T12:29:06.666Z,1640.00
2023-03-05T12:30:06.650Z,1640.00
2023-03-05T12:31:06.640Z,1508.00
2023-03-05T12:32:06.668Z,1736.00
2023-03-05T12:33:06.638Z,1788.00
2023-03-05T12:34:06.604Z,1636.00
2023-03-05T12:35:06.612Z,1376.00
2023-03-05T12:36:06.634Z,1372.00
2023-03-05T12:37:06.567Z,1448.00
2023-03-05T12:38:25.696Z,1304.00
2023-03-05T12:39:07.574Z,1264.00
2023-03-05T12:40:06.531Z,1344.00
2023-03-05T12:41:06.520Z,1352.00
2023-03-05T12:42:06.540Z,1380.00
2023-03-05T12:43:06.511Z,1516.00
2023-03-05T12:44:06.493Z,1412.00
2023-03-05T12:45:06.482Z,1352.00
2023-03-05T12:46:06.492Z,1484.00